createdAt,value
2023-04-13T00:00:12.371Z,14.50
2023-04-13T00:02:43.637Z,14.40
2023-04-13T00:05:15.606Z,14.60
2023-04-13T00:07:47.606Z,14.60
2023-04-13T00:10:20.154Z,14.50
2023-04-13T00:12:51.803Z,14.60
2023-04-13T00:15:25.700Z,14.60
2023-04-13T00:17:57.336Z,14.60
2023-04-13T00:20:28.853Z,14.60
2023-04-13T00:23:00.637Z,14.70
2023-04-13T00:25:32.417Z,14.70
2023-04-13T00:28:07.365Z,14.60
2023-04-13T00:30:41.729Z,14.70
2023-04-13T00:33:14.945Z,14.60
2023-04-13T00:35:47.452Z,14.50
2023-04-13T00:38:20.446Z,14.20
2023-04-13T00:40:54.544Z,14.00
2023-04-13T00:43:26.395Z,13.90
2023-04-13T00:46:00.582Z,13.70
2023-04-13T00:48:32.455Z,13.40
2023-04-13T00:51:04.874Z,13.50
2023-04-13T00:53:36.454Z,13.60
2023-04-13T00:56:09.656Z,13.60
2023-04-13T00:58:41.880Z,13.90
2023-04-13T01:01:16.383Z,13.90
2023-04-13T01:03:49.480Z,14.00
2023-04-13T01:06:28.948Z,14.00
2023-04-13T01:09:05.868Z,13.80
2023-04-13T01:11:42.545Z,13.60
2023-04-13T01:14:19.223Z,13.40
2023-04-13T01:16:59.274Z,13.70
2023-04-13T01:19:51.180Z,13.60
2023-04-13T01:22:25.597Z,13.50
2023-04-13T01:25:18.718Z,13.60
2023-04-13T01:27:56.602Z,13.90
2023-04-13T01:30:30.214Z,14.10
2023-04-13T01:33:03.097Z,13.70
2023-04-13T01:35:35.575Z,13.60
2023-04-13T01:38:10.307Z,13.50
2023-04-13T01:40:43.419Z,12.80
2023-04-13T01:43:17.101Z,12.60
2023-04-13T01:45:52.982Z,12.40
2023-04-13T01:48:36.971Z,12.30
2023-04-13T01:51:12.189Z,12.30
2023-04-13T01:53:50.629Z,12.20
2023-04-13T01:56:28.056Z,12.00
2023-04-13T01:59:03.016Z,11.70
2023-04-13T02:01:35.629Z,11.50
2023-04-13T02:04:08.971Z,11.20
2023-04-13T02:06:41.202Z,10.70
2023-04-13T02:09:13.573Z,10.50
2023-04-13T02:11:45.973Z,10.50
2023-04-13T02:14:20.146Z,10.30
2023-04-13T02:16:52.392Z,10.30
2023-04-13T02:19:23.651Z,10.30
2023-04-13T02:21:54.630Z,10.20
2023-04-13T02:24:26.103Z,10.20
2023-04-13T02:26:57.667Z,10.10
2023-04-13T02:29:30.590Z,9.90
2023-04-13T02:32:01.566Z,9.80
2023-04-13T02:34:32.865Z,9.80
2023-04-13T02:37:03.911Z,9.70
2023-04-13T02:39:34.854Z,9.70
2023-04-13T02:42:06.440Z,9.70
2023-04-13T02:44:40.281Z,9.60
2023-04-13T02:47:11.708Z,9.60
2023-04-13T02:49:43.812Z,9.40
2023-04-13T02:52:15.118Z,9.40
2023-04-13T02:54:47.557Z,9.20
2023-04-13T02:57:19.604Z,9.00
2023-04-13T02:59:54.175Z,8.90
2023-04-13T03:02:27.535Z,8.80
2023-04-13T03:05:00.479Z,8.70
2023-04-13T03:07:33.500Z,8.60
2023-04-13T03:10:06.245Z,8.50
2023-04-13T03:12:37.983Z,8.40
2023-04-13T03:15:13.204Z,8.30
2023-04-13T03:17:45.081Z,8.30
2023-04-13T03:20:21.612Z,8.20
2023-04-13T03:22:52.607Z,8.10
2023-04-13T03:25:23.515Z,8.00
2023-04-13T03:27:55.891Z,7.90
2023-04-13T03:30:28.555Z,7.90
2023-04-13T03:33:00.033Z,7.80
2023-04-13T03:35:30.984Z,7.90
2023-04-13T03:38:02.408Z,7.80
2023-04-13T03:40:34.964Z,7.80
2023-04-13T03:43:07.073Z,7.80
2023-04-13T03:45:40.749Z,7.90
2023-04-13T03:48:11.885Z,7.90
2023-04-13T03:50:43.059Z,7.90
2023-04-13T03:53:16.166Z,7.90
2023-04-13T03:55:47.276Z,7.90
2023-04-13T03:58:18.273Z,7.90
2023-04-13T04:00:51.427Z,8.00
2023-04-13T04:03:23.627Z,7.90
2023-04-13T04:05:55.169Z,7.90
2023-04-13T04:08:26.779Z,7.90
2023-04-13T04:10:58.173Z,7.90
2023-04-13T04:13:29.180Z,7.80
2023-04-13T04:16:01.729Z,7.70
2023-04-13T04:18:34.709Z,7.60
2023-04-13T04:21:08.283Z,7.50
2023-04-13T04:23:41.488Z,7.50
2023-04-13T04:26:15.070Z,7.40
2023-04-13T04:28:46.806Z,7.30
2023-04-13T04:31:19.911Z,7.20
2023-04-13T04:33:52.804Z,7.10
2023-04-13T04:36:24.978Z,7.00
2023-04-13T04:39:03.193Z,6.90
2023-04-13T04:41:34.170Z,6.80
2023-04-13T04:44:05.273Z,6.70
2023-04-13T04:46:39.737Z,6.70
2023-04-13T04:49:11.523Z,6.60
2023-04-13T04:51:42.380Z,6.50
2023-04-13T04:54:13.844Z,6.50
2023-04-13T04:56:45.268Z,6.40
2023-04-13T04:59:17.049Z,6.40
2023-04-13T05:01:50.809Z,6.30
2023-04-13T05:04:22.356Z,6.30
2023-04-13T05:06:53.089Z,6.30
2023-04-13T05:09:24.282Z,6.30
2023-04-13T05:11:55.646Z,6.20
2023-04-13T05:14:27.541Z,6.10
2023-04-13T05:17:01.460Z,6.10
2023-04-13T05:19:32.651Z,6.00
2023-04-13T05:22:04.164Z,6.00
2023-04-13T05:24:37.647Z,6.00
2023-04-13T05:27:10.859Z,6.00
2023-04-13T05:29:41.835Z,5.90
2023-04-13T05:32:15.434Z,5.80
2023-04-13T05:34:47.059Z,5.70
2023-04-13T05:37:19.140Z,5.70
2023-04-13T05:39:50.995Z,5.60
2023-04-13T05:42:21.846Z,5.60
2023-04-13T05:44:52.914Z,5.50
2023-04-13T05:47:28.425Z,5.60
2023-04-13T05:50:00.076Z,5.60
2023-04-13T05:52:31.665Z,5.50
2023-04-13T05:55:02.858Z,5.50
2023-04-13T05:57:33.788Z,5.40
2023-04-13T06:00:06.052Z,5.40
2023-04-13T06:02:41.089Z,5.40
2023-04-13T06:05:14.685Z,5.50
2023-04-13T06:07:47.444Z,5.40
2023-04-13T06:10:19.296Z,5.40
2023-04-13T06:12:51.624Z,5.40
2023-04-13T06:15:24.028Z,5.40
2023-04-13T06:17:57.251Z,5.40
2023-04-13T06:20:29.363Z,5.30
2023-04-13T06:23:00.999Z,5.40
2023-04-13T06:25:32.285Z,5.40
2023-04-13T06:28:07.072Z,5.40
2023-04-13T06:30:38.954Z,5.30
2023-04-13T06:33:12.234Z,5.30
2023-04-13T06:35:43.597Z,5.30
2023-04-13T06:38:14.813Z,5.30
2023-04-13T06:40:46.749Z,5.50
2023-04-13T06:43:29.224Z,5.50
2023-04-13T06:46:04.641Z,5.50
2023-04-13T06:48:37.876Z,5.50
2023-04-13T06:51:09.725Z,5.40
2023-04-13T06:53:41.112Z,5.40
2023-04-13T06:56:13.225Z,5.40
2023-04-13T06:58:44.309Z,5.40
2023-04-13T07:01:15.444Z,5.40
2023-04-13T07:03:49.316Z,5.40
2023-04-13T07:06:20.791Z,5.40
2023-04-13T07:08:52.901Z,5.30
2023-04-13T07:11:24.227Z,5.20
2023-04-13T07:13:55.517Z,5.20
2023-04-13T07:16:29.785Z,5.10
2023-04-13T07:19:02.839Z,5.10
2023-04-13T07:21:34.806Z,5.10
2023-04-13T07:24:06.488Z,5.00
2023-04-13T07:26:38.709Z,5.00
2023-04-13T07:29:14.294Z,5.00
2023-04-13T07:31:46.769Z,5.00
2023-04-13T07:34:22.760Z,5.00
2023-04-13T07:36:53.661Z,5.00
2023-04-13T07:39:24.875Z,5.10
2023-04-13T07:41:57.569Z,5.10
2023-04-13T07:44:28.523Z,5.10
2023-04-13T07:47:00.037Z,5.10
2023-04-13T07:49:33.879Z,5.10
2023-04-13T07:52:06.056Z,4.90
2023-04-13T07:54:38.075Z,4.90
2023-04-13T07:57:12.706Z,4.80
2023-04-13T07:59:44.077Z,4.60
2023-04-13T08:02:18.191Z,4.60
2023-04-13T08:04:50.872Z,4.60
2023-04-13T08:07:22.410Z,4.60
2023-04-13T08:09:55.482Z,4.60
2023-04-13T08:12:27.364Z,4.50
2023-04-13T08:14:59.069Z,4.50
2023-04-13T08:17:30.704Z,4.50
2023-04-13T08:20:04.960Z,4.40
2023-04-13T08:22:38.650Z,4.40
2023-04-13T08:25:11.021Z,4.40
2023-04-13T08:27:42.365Z,4.40
2023-04-13T08:30:15.279Z,4.40
2023-04-13T08:32:46.976Z,4.30
2023-04-13T08:35:20.401Z,4.20
2023-04-13T08:37:52.072Z,4.20
2023-04-13T08:40:23.606Z,4.20
2023-04-13T08:42:57.548Z,4.20
2023-04-13T08:45:31.925Z,4.20
2023-04-13T08:48:05.162Z,4.20
2023-04-13T08:50:40.482Z,4.20
2023-04-13T08:53:11.877Z,4.30
2023-04-13T08:55:48.317Z,4.40
2023-04-13T08:58:22.267Z,4.40
2023-04-13T09:00:54.189Z,4.50
2023-04-13T09:03:30.322Z,4.50
2023-04-13T09:06:08.076Z,4.60
2023-04-13T09:08:41.941Z,4.60
2023-04-13T09:11:14.429Z,4.70
2023-04-13T09:13:53.766Z,4.70
2023-04-13T09:16:25.765Z,4.70
2023-04-13T09:18:58.468Z,4.70
2023-04-13T09:21:43.430Z,4.80
2023-04-13T09:24:16.383Z,4.70
2023-04-13T09:26:49.946Z,4.70
2023-04-13T09:29:22.834Z,4.70
2023-04-13T09:31:54.807Z,4.70
2023-04-13T09:34:32.209Z,4.80
2023-04-13T09:37:20.081Z,4.80
2023-04-13T09:39:51.786Z,4.90
2023-04-13T09:42:23.301Z,4.90
2023-04-13T09:45:00.797Z,5.00
2023-04-13T09:47:41.369Z,5.10
2023-04-13T09:50:25.084Z,5.20
2023-04-13T09:53:12.173Z,5.20
2023-04-13T09:55:45.463Z,5.20
2023-04-13T09:58:18.476Z,5.30
2023-04-13T10:00:51.226Z,5.30
2023-04-13T10:03:24.588Z,5.20
2023-04-13T10:06:00.484Z,5.20
2023-04-13T10:08:38.576Z,5.30
2023-04-13T10:11:15.767Z,5.30
2023-04-13T10:13:55.607Z,5.30
2023-04-13T10:16:52.522Z,5.40
2023-04-13T10:19:28.186Z,5.30
2023-04-13T10:22:00.820Z,5.20
2023-04-13T10:24:36.618Z,5.30
2023-04-13T10:27:17.862Z,5.20
2023-04-13T10:29:50.957Z,5.20
2023-04-13T10:32:26.962Z,5.20
2023-04-13T10:34:59.364Z,5.20
2023-04-13T10:37:34.548Z,5.20
2023-04-13T10:40:10.572Z,5.20
2023-04-13T10:45:25.004Z,5.20
2023-04-13T10:47:59.394Z,5.20
2023-04-13T10:50:31.033Z,5.30
2023-04-13T10:53:05.462Z,5.30
2023-04-13T10:55:41.841Z,5.20
2023-04-13T10:58:19.995Z,5.30
2023-04-13T11:00:53.828Z,5.30
2023-04-13T11:03:26.110Z,5.40
2023-04-13T11:06:01.337Z,5.40
2023-04-13T11:08:33.871Z,5.40
2023-04-13T11:11:14.944Z,5.40
2023-04-13T11:13:50.322Z,5.30
2023-04-13T11:16:21.809Z,5.20
2023-04-13T11:19:03.850Z,5.20
2023-04-13T11:21:36.366Z,5.20
2023-04-13T11:24:08.077Z,5.20
2023-04-13T11:26:43.387Z,5.20
2023-04-13T11:29:22.074Z,5.20
2023-04-13T11:31:53.866Z,5.20
2023-04-13T11:34:30.604Z,5.20
2023-04-13T11:37:07.121Z,5.30
2023-04-13T11:39:40.377Z,5.30
2023-04-13T11:42:14.918Z,5.30
2023-04-13T11:44:47.372Z,5.20
2023-04-13T11:47:22.883Z,5.30
2023-04-13T11:49:54.583Z,5.30
2023-04-13T11:52:26.145Z,5.40
2023-04-13T11:55:00.638Z,5.30
2023-04-13T11:57:41.720Z,5.40
2023-04-13T12:00:19.767Z,5.30
2023-04-13T12:03:01.913Z,5.30
2023-04-13T12:05:34.712Z,5.20
2023-04-13T12:08:06.299Z,5.40
2023-04-13T12:10:43.646Z,5.40
2023-04-13T12:13:35.903Z,5.40
2023-04-13T12:16:14.801Z,5.40
2023-04-13T12:18:50.193Z,5.40
2023-04-13T12:21:23.512Z,5.40
2023-04-13T12:24:02.956Z,5.40
2023-04-13T12:29:15.224Z,5.40
2023-04-13T12:31:48.737Z,5.40
2023-04-13T12:34:19.637Z,5.20
2023-04-13T12:36:51.063Z,5.10
2023-04-13T12:39:22.384Z,5.20
2023-04-13T12:41:53.939Z,5.10
2023-04-13T12:44:33.095Z,5.00
2023-04-13T12:47:07.033Z,4.90
2023-04-13T12:49:38.685Z,4.90
2023-04-13T12:52:10.146Z,4.80
2023-04-13T12:54:41.777Z,4.80
2023-04-13T12:57:16.997Z,4.80
2023-04-13T12:59:50.725Z,4.80
2023-04-13T13:02:23.969Z,4.80
2023-04-13T13:04:57.795Z,4.80
2023-04-13T13:07:29.968Z,4.80
2023-04-13T13:10:02.162Z,4.80
2023-04-13T13:12:33.976Z,4.80
2023-04-13T13:15:14.135Z,4.80
2023-04-13T13:17:46.221Z,4.80
2023-04-13T13:20:18.290Z,4.90
2023-04-13T13:22:49.952Z,4.90
2023-04-13T13:25:21.333Z,4.90
2023-04-13T13:30:28.905Z,4.90
2023-04-13T13:32:59.724Z,4.80
2023-04-13T13:35:30.850Z,4.80
2023-04-13T13:38:02.570Z,4.70
2023-04-13T13:40:33.893Z,4.80
2023-04-13T13:43:05.430Z,4.70
2023-04-13T13:45:38.733Z,4.80
2023-04-13T13:48:10.032Z,4.70
2023-04-13T13:50:40.903Z,4.70
2023-04-13T13:53:12.579Z,4.70
2023-04-13T13:55:43.572Z,4.70
2023-04-13T13:58:15.011Z,4.70
2023-04-13T14:00:47.491Z,4.70
2023-04-13T14:03:18.834Z,4.90
2023-04-13T14:05:49.961Z,4.90
2023-04-13T14:08:21.393Z,4.90
2023-04-13T14:10:53.073Z,5.10
2023-04-13T14:13:24.511Z,5.10
2023-04-13T14:15:58.195Z,5.20
2023-04-13T14:18:29.847Z,5.20
2023-04-13T14:21:01.328Z,5.40
2023-04-13T14:23:32.198Z,5.40
2023-04-13T14:26:03.412Z,5.50
2023-04-13T14:28:40.006Z,5.60
2023-04-13T14:31:13.193Z,5.60
2023-04-13T14:33:44.499Z,5.70
2023-04-13T14:36:16.257Z,5.80
2023-04-13T14:38:47.969Z,5.80
2023-04-13T14:41:19.333Z,5.90
2023-04-13T14:43:50.649Z,5.90
2023-04-13T14:46:23.829Z,6.00
2023-04-13T14:48:54.730Z,6.10
2023-04-13T14:51:26.510Z,6.10
2023-04-13T14:53:58.375Z,6.20
2023-04-13T14:56:29.409Z,6.10
2023-04-13T14:59:01.005Z,5.90
2023-04-13T15:01:35.667Z,6.00
2023-04-13T15:04:07.393Z,6.10
2023-04-13T15:06:41.156Z,6.10
2023-04-13T15:09:14.041Z,6.10
2023-04-13T15:11:45.840Z,6.20
2023-04-13T15:14:17.312Z,6.30
2023-04-13T15:16:50.072Z,6.30
2023-04-13T15:19:21.760Z,6.40
2023-04-13T15:21:53.171Z,6.60
2023-04-13T15:24:24.557Z,6.50
2023-04-13T15:26:56.190Z,6.40
2023-04-13T15:29:28.048Z,6.40
2023-04-13T15:32:02.889Z,6.40
2023-04-13T15:34:35.152Z,6.40
2023-04-13T15:37:07.245Z,6.50
2023-04-13T15:39:38.833Z,6.50
2023-04-13T15:42:10.293Z,6.60
2023-04-13T15:44:41.871Z,6.60
2023-04-13T15:47:15.466Z,6.60
2023-04-13T15:49:47.163Z,6.60
2023-04-13T15:52:19.190Z,6.70
2023-04-13T15:54:51.625Z,6.60
2023-04-13T15:57:24.504Z,6.70
2023-04-13T15:59:55.979Z,6.80
2023-04-13T16:02:29.685Z,6.90
2023-04-13T16:05:01.383Z,6.90
2023-04-13T16:07:32.949Z,7.10
2023-04-13T16:10:05.853Z,7.00
2023-04-13T16:12:39.909Z,7.00
2023-04-13T16:15:12.779Z,7.20
2023-04-13T16:17:46.546Z,7.40
2023-04-13T16:20:23.191Z,7.40
2023-04-13T16:22:55.531Z,7.30
2023-04-13T16:25:26.699Z,7.40
2023-04-13T16:27:57.530Z,7.40
2023-04-13T16:30:29.005Z,7.20
2023-04-13T16:33:04.409Z,7.20
2023-04-13T16:35:36.824Z,7.40
2023-04-13T16:38:08.182Z,7.40
2023-04-13T16:40:39.719Z,7.40
2023-04-13T16:43:11.031Z,7.20
2023-04-13T16:45:43.239Z,7.10
2023-04-13T16:48:16.210Z,7.20
2023-04-13T16:50:47.818Z,7.20
2023-04-13T16:53:19.515Z,7.00
2023-04-13T16:55:53.305Z,7.00
2023-04-13T16:58:25.095Z,6.90
2023-04-13T17:00:57.541Z,7.00
2023-04-13T17:03:31.623Z,7.10
2023-04-13T17:06:03.229Z,7.30
2023-04-13T17:08:35.044Z,7.40
2023-04-13T17:11:09.118Z,7.70
2023-04-13T17:13:41.747Z,7.70
2023-04-13T17:16:13.966Z,7.60
2023-04-13T17:18:47.783Z,7.20
2023-04-13T17:21:19.151Z,7.10
2023-04-13T17:23:51.535Z,7.20
2023-04-13T17:26:22.904Z,7.30
2023-04-13T17:28:54.418Z,7.40
2023-04-13T17:31:26.249Z,7.60
2023-04-13T17:34:00.425Z,7.60
2023-04-13T17:36:32.406Z,7.70
2023-04-13T17:39:03.981Z,7.60
2023-04-13T17:41:36.105Z,7.50
2023-04-13T17:44:07.895Z,7.60
2023-04-13T17:46:39.338Z,7.50
2023-04-13T17:49:12.616Z,7.40
2023-04-13T17:51:44.519Z,7.40
2023-04-13T17:54:15.855Z,7.50
2023-04-13T17:56:48.558Z,7.60
2023-04-13T17:59:20.287Z,7.50
2023-04-13T18:01:53.394Z,7.60
2023-04-13T18:04:28.170Z,7.90
2023-04-13T18:07:00.574Z,8.10
2023-04-13T18:09:32.410Z,8.00
2023-04-13T18:12:04.146Z,8.10
2023-04-13T18:14:35.734Z,8.30
2023-04-13T18:17:07.717Z,8.50
2023-04-13T18:19:41.752Z,8.50
2023-04-13T18:22:14.733Z,8.60
2023-04-13T18:24:49.246Z,8.60
2023-04-13T18:27:20.426Z,8.70
2023-04-13T18:29:51.909Z,8.40
2023-04-13T18:32:23.997Z,8.30
2023-04-13T18:34:57.478Z,8.50
2023-04-13T18:37:28.579Z,8.60
2023-04-13T18:40:00.562Z,8.60
2023-04-13T18:42:33.663Z,8.90
2023-04-13T18:45:05.059Z,8.90
2023-04-13T18:47:37.194Z,8.90
2023-04-13T18:50:12.600Z,9.00
2023-04-13T18:52:44.501Z,9.00
2023-04-13T18:55:16.256Z,9.20
2023-04-13T18:57:48.172Z,9.50
2023-04-13T19:00:20.085Z,9.30
2023-04-13T19:02:54.073Z,8.80
2023-04-13T19:05:28.993Z,8.80
2023-04-13T19:08:01.753Z,8.90
2023-04-13T19:10:34.114Z,9.20
2023-04-13T19:13:05.540Z,9.10
2023-04-13T19:15:37.421Z,9.10
2023-04-13T19:18:09.112Z,9.10
2023-04-13T19:20:42.879Z,9.10
2023-04-13T19:23:14.529Z,9.10
2023-04-13T19:25:45.891Z,9.20
2023-04-13T19:28:17.286Z,9.30
2023-04-13T19:30:49.258Z,9.50
2023-04-13T19:33:21.102Z,9.60
2023-04-13T19:35:54.768Z,9.60
2023-04-13T19:38:26.454Z,9.60
2023-04-13T19:40:58.869Z,9.40
2023-04-13T19:43:29.772Z,9.60
2023-04-13T19:46:00.856Z,9.70
2023-04-13T19:48:32.472Z,9.70
2023-04-13T19:51:06.847Z,9.80
2023-04-13T19:53:39.069Z,9.90
2023-04-13T19:56:10.583Z,9.60
2023-04-13T19:58:42.570Z,9.80
2023-04-13T20:01:15.469Z,10.10
2023-04-13T20:03:48.055Z,10.00
2023-04-13T20:06:22.884Z,9.60
2023-04-13T20:08:54.592Z,9.60
2023-04-13T20:11:25.968Z,9.50
2023-04-13T20:13:57.191Z,9.60
2023-04-13T20:16:28.215Z,10.00
2023-04-13T20:19:00.635Z,10.10
2023-04-13T20:21:35.440Z,10.30
2023-04-13T20:24:07.878Z,10.30
2023-04-13T20:26:39.299Z,10.30
2023-04-13T20:29:11.506Z,10.50
2023-04-13T20:31:43.070Z,10.60
2023-04-13T20:34:14.585Z,10.60
2023-04-13T20:36:48.127Z,10.80
2023-04-13T20:39:23.880Z,11.00
2023-04-13T20:41:58.655Z,11.10
2023-04-13T20:44:30.343Z,11.20
2023-04-13T20:47:02.846Z,11.10
2023-04-13T20:49:34.717Z,11.20
2023-04-13T20:52:08.264Z,11.50
2023-04-13T20:54:39.612Z,11.40
2023-04-13T20:57:11.571Z,11.60
2023-04-13T20:59:43.905Z,11.70
2023-04-13T21:02:16.440Z,11.60
2023-04-13T21:04:49.137Z,11.80
2023-04-13T21:07:23.837Z,11.70
2023-04-13T21:09:55.372Z,11.60
2023-04-13T21:12:29.064Z,12.00
2023-04-13T21:15:00.589Z,11.80
2023-04-13T21:17:32.869Z,11.80
2023-04-13T21:20:06.260Z,11.70
2023-04-13T21:22:40.234Z,11.80
2023-04-13T21:25:13.442Z,11.20
2023-04-13T21:27:44.647Z,10.60
2023-04-13T21:30:16.163Z,10.90
2023-04-13T21:32:47.659Z,11.40
2023-04-13T21:35:19.255Z,11.50
2023-04-13T21:37:53.734Z,11.60
2023-04-13T21:40:25.857Z,11.80
2023-04-13T21:42:57.278Z,11.50
2023-04-13T21:45:29.160Z,11.50
2023-04-13T21:48:01.211Z,11.50
2023-04-13T21:50:32.697Z,11.60
2023-04-13T21:53:06.643Z,11.70
2023-04-13T21:55:37.778Z,11.80
2023-04-13T21:58:09.490Z,11.90
2023-04-13T22:00:43.340Z,11.60
2023-04-13T22:03:16.258Z,11.50
2023-04-13T22:05:48.321Z,11.80
2023-04-13T22:08:21.867Z,12.20
2023-04-13T22:10:53.536Z,12.80
2023-04-13T22:13:24.943Z,12.90
2023-04-13T22:15:56.495Z,13.00
2023-04-13T22:18:28.666Z,13.20
2023-04-13T22:21:01.870Z,12.00
2023-04-13T22:23:34.501Z,12.40
2023-04-13T22:26:08.256Z,12.40
2023-04-13T22:28:39.293Z,12.50
2023-04-13T22:31:11.355Z,13.10
2023-04-13T22:33:43.199Z,13.30
2023-04-13T22:36:21.435Z,13.20
2023-04-13T22:38:56.227Z,13.40
2023-04-13T22:41:27.779Z,13.30
2023-04-13T22:43:59.452Z,13.40
2023-04-13T22:46:31.104Z,12.70
2023-04-13T22:49:02.659Z,12.70
2023-04-13T22:51:40.511Z,12.60
2023-04-13T22:54:15.209Z,12.70
2023-04-13T22:56:47.475Z,12.50
2023-04-13T22:59:19.146Z,12.40
2023-04-13T23:01:50.659Z,12.60
2023-04-13T23:04:21.722Z,12.80
2023-04-13T23:06:52.839Z,12.70
2023-04-13T23:09:26.313Z,12.80
2023-04-13T23:11:57.308Z,12.70
2023-04-13T23:14:28.981Z,12.80
2023-04-13T23:17:00.641Z,12.60
2023-04-13T23:19:32.055Z,12.50
2023-04-13T23:22:04.197Z,12.50
2023-04-13T23:24:37.535Z,12.30
2023-04-13T23:27:09.954Z,12.20
2023-04-13T23:29:46.478Z,12.00
2023-04-13T23:32:17.545Z,12.10
2023-04-13T23:34:49.038Z,12.00
2023-04-13T23:37:20.538Z,12.00
2023-04-13T23:39:54.475Z,12.30
2023-04-13T23:42:25.630Z,12.40
2023-04-13T23:44:57.525Z,12.30
2023-04-13T23:47:32.524Z,12.00
2023-04-13T23:50:04.092Z,12.00
2023-04-13T23:52:36.046Z,11.90
2023-04-13T23:55:10.705Z,11.70
2023-04-13T23:57:42.665Z,11.50
